Strona główna
METAR-TAF:

METAR-TAF

Lotnisko :

Port lotniczy Paryż-Roissy-Charles de Gaulle

Paryż-Charles de Gaulle, Francja

Szerokość geograficzna: 49-01N, Długość geograficzna: 002-32E, wysokość: 118 m

Aktualna obserwacja pogody

Raport powstał 32 minut temu, godzina 12:00 UTC
Wiatr 4 kt z kierunków zmiennych
Temperatura 26°C
Wilgotność 34%
Ciśnienie 1015 hPa
Widzialność 10 km lub więcej
Brak chmur poniżej 1500 m i brak chmur cumulonimbus

METAR: LFPG 171200Z VRB04KT CAVOK 26/09 Q1015 NOSIG

czas: 14:32 (12:32 UTC)

Prognoza

Raport powstał 1 godzina i 32 minut temu, godzina 11:00 UTC
Prognoza ważna od 17 godzina 12 UTC do 18 godzina 18 UTC
Wiatr 3 kt z kierunków zmiennych
Widzialność 10 km lub więcej
Brak chmur poniżej 1500 m i brak chmur cumulonimbus
Stopniowe zmiany
od 17 godzina 18 UTC do 17 godzina 20 UTC
Wiatr 10 kt od północno-północny zachód

TAF: LFPG 171100Z 1712/1818 VRB03KT CAVOK TX29/1716Z TN17/1804Z BECMG 1718/1720 34010KT

Obserwacja i prognoza pogody dla ponad 4000 lotnisk (raport METAR i TAF).

Dostępne stacje oznaczono żółtymi i czerwonymi punktami na mapie.

Najedź kursorem aby zobaczyć nazwę stacji.

Kliknij aby zobaczyć obserwacje i prognozy pogody.

Aby zmienić mapę: kliknij na zielony przycisk z czarnym krzyżykiem, aby powiększyć; na zielony przycisk z myślnikiem, aby pomniejszyć; na zielone strzałki, aby przejść do map sąsiednich.


METAR-TAF: